sensor_id;sensor_type;location;lat;lon;timestamp;pressure;altitude;pressure_sealevel;temperature;humidity
28000;BME280;15328;50.860;10.562;2024-01-07T00:00:58;96136.06;;;3.56;69.90
28000;BME280;15328;50.860;10.562;2024-01-07T00:05:59;96137.72;;;3.57;69.47
28000;BME280;15328;50.860;10.562;2024-01-07T00:10:59;96136.97;;;3.48;68.98
28000;BME280;15328;50.860;10.562;2024-01-07T00:15:59;96138.50;;;3.28;69.72
28000;BME280;15328;50.860;10.562;2024-01-07T00:21:00;96138.13;;;3.16;69.60
28000;BME280;15328;50.860;10.562;2024-01-07T00:26:01;96144.00;;;3.03;69.48
28000;BME280;15328;50.860;10.562;2024-01-07T00:31:03;96142.69;;;2.99;70.01
28000;BME280;15328;50.860;10.562;2024-01-07T00:36:04;96151.16;;;3.09;70.50
28000;BME280;15328;50.860;10.562;2024-01-07T00:41:04;96147.91;;;3.07;70.30
28000;BME280;15328;50.860;10.562;2024-01-07T00:46:05;96154.19;;;2.98;69.82
28000;BME280;15328;50.860;10.562;2024-01-07T00:51:05;96159.94;;;3.02;69.93
28000;BME280;15328;50.860;10.562;2024-01-07T00:56:06;96154.56;;;2.95;70.32
28000;BME280;15328;50.860;10.562;2024-01-07T01:01:07;96173.59;;;2.97;70.17
28000;BME280;15328;50.860;10.562;2024-01-07T01:06:07;96176.00;;;2.84;69.92
28000;BME280;15328;50.860;10.562;2024-01-07T01:11:10;96177.47;;;2.87;70.76
28000;BME280;15328;50.860;10.562;2024-01-07T01:16:11;96176.81;;;2.85;70.17
28000;BME280;15328;50.860;10.562;2024-01-07T01:21:11;96190.78;;;2.85;70.02
28000;BME280;15328;50.860;10.562;2024-01-07T01:26:12;96192.75;;;2.83;69.79
28000;BME280;15328;50.860;10.562;2024-01-07T01:31:13;96196.84;;;2.86;69.83
28000;BME280;15328;50.860;10.562;2024-01-07T01:36:14;96212.50;;;2.79;70.05
28000;BME280;15328;50.860;10.562;2024-01-07T01:41:16;96218.28;;;2.74;69.79
28000;BME280;15328;50.860;10.562;2024-01-07T01:46:16;96224.69;;;2.72;69.07
28000;BME280;15328;50.860;10.562;2024-01-07T01:51:17;96224.72;;;2.64;69.52
28000;BME280;15328;50.860;10.562;2024-01-07T01:56:20;96227.19;;;2.65;69.38
28000;BME280;15328;50.860;10.562;2024-01-07T02:01:23;96224.38;;;2.67;68.82
28000;BME280;15328;50.860;10.562;2024-01-07T02:06:24;96231.31;;;2.60;68.83
28000;BME280;15328;50.860;10.562;2024-01-07T02:11:25;96236.97;;;2.48;69.14
28000;BME280;15328;50.860;10.562;2024-01-07T02:16:25;96241.88;;;2.52;69.61
28000;BME280;15328;50.860;10.562;2024-01-07T02:21:26;96249.59;;;2.45;68.91
28000;BME280;15328;50.860;10.562;2024-01-07T02:26:26;96258.53;;;2.36;68.90
28000;BME280;15328;50.860;10.562;2024-01-07T02:31:27;96256.75;;;2.28;69.23
28000;BME280;15328;50.860;10.562;2024-01-07T02:36:28;96267.78;;;2.15;69.06
28000;BME280;15328;50.860;10.562;2024-01-07T02:41:28;96268.81;;;2.06;68.64
28000;BME280;15328;50.860;10.562;2024-01-07T02:46:28;96270.59;;;2.06;69.81
28000;BME280;15328;50.860;10.562;2024-01-07T02:51:29;96274.38;;;2.03;69.17
28000;BME280;15328;50.860;10.562;2024-01-07T02:56:29;96282.28;;;1.95;68.44
28000;BME280;15328;50.860;10.562;2024-01-07T03:01:31;96286.88;;;1.85;68.34
28000;BME280;15328;50.860;10.562;2024-01-07T03:06:31;96272.00;;;1.77;68.75
28000;BME280;15328;50.860;10.562;2024-01-07T03:11:32;96284.94;;;1.79;68.87
28000;BME280;15328;50.860;10.562;2024-01-07T03:16:32;96284.78;;;1.80;68.93
28000;BME280;15328;50.860;10.562;2024-01-07T03:21:33;96292.63;;;1.89;69.42
28000;BME280;15328;50.860;10.562;2024-01-07T03:26:33;96299.22;;;1.76;67.93
28000;BME280;15328;50.860;10.562;2024-01-07T03:31:33;96301.00;;;1.84;67.78
28000;BME280;15328;50.860;10.562;2024-01-07T03:36:34;96300.84;;;1.77;69.36
28000;BME280;15328;50.860;10.562;2024-01-07T03:41:34;96294.94;;;1.75;68.73
28000;BME280;15328;50.860;10.562;2024-01-07T03:46:34;96298.88;;;1.71;67.94
28000;BME280;15328;50.860;10.562;2024-01-07T03:51:35;96297.09;;;1.72;68.01
28000;BME280;15328;50.860;10.562;2024-01-07T03:56:35;96294.63;;;1.70;68.22
28000;BME280;15328;50.860;10.562;2024-01-07T04:01:36;96299.22;;;1.76;67.58
28000;BME280;15328;50.860;10.562;2024-01-07T04:06:36;96312.97;;;1.78;66.97
28000;BME280;15328;50.860;10.562;2024-01-07T04:11:40;96311.84;;;1.48;67.19
28000;BME280;15328;50.860;10.562;2024-01-07T04:16:42;96314.97;;;1.52;67.38
28000;BME280;15328;50.860;10.562;2024-01-07T04:21:46;96327.41;;;1.50;67.41
28000;BME280;15328;50.860;10.562;2024-01-07T04:26:46;96334.47;;;1.49;66.05
28000;BME280;15328;50.860;10.562;2024-01-07T04:31:46;96331.03;;;1.41;66.70
28000;BME280;15328;50.860;10.562;2024-01-07T04:36:47;96340.16;;;1.37;66.37
28000;BME280;15328;50.860;10.562;2024-01-07T04:41:48;96347.38;;;1.35;67.19
28000;BME280;15328;50.860;10.562;2024-01-07T04:46:48;96350.53;;;1.38;66.26
28000;BME280;15328;50.860;10.562;2024-01-07T04:51:51;96356.75;;;1.37;67.00
28000;BME280;15328;50.860;10.562;2024-01-07T04:56:51;96358.19;;;1.32;67.20
28000;BME280;15328;50.860;10.562;2024-01-07T05:01:52;96366.38;;;1.37;65.98
28000;BME280;15328;50.860;10.562;2024-01-07T05:06:52;96369.34;;;1.34;65.97
28000;BME280;15328;50.860;10.562;2024-01-07T05:11:52;96380.97;;;1.31;65.79
28000;BME280;15328;50.860;10.562;2024-01-07T05:16:53;96381.44;;;1.27;65.11
28000;BME280;15328;50.860;10.562;2024-01-07T05:21:54;96390.94;;;1.11;65.82
28000;BME280;15328;50.860;10.562;2024-01-07T05:26:55;96395.47;;;1.01;65.90
28000;BME280;15328;50.860;10.562;2024-01-07T05:31:55;96391.84;;;0.94;65.26
28000;BME280;15328;50.860;10.562;2024-01-07T05:36:55;96401.84;;;0.90;65.23
28000;BME280;15328;50.860;10.562;2024-01-07T05:41:56;96404.63;;;0.89;66.25
28000;BME280;15328;50.860;10.562;2024-01-07T05:46:56;96418.72;;;0.96;66.23
28000;BME280;15328;50.860;10.562;2024-01-07T05:51:56;96420.50;;;0.96;65.28
28000;BME280;15328;50.860;10.562;2024-01-07T05:56:57;96425.81;;;0.78;65.11
28000;BME280;15328;50.860;10.562;2024-01-07T06:01:58;96439.88;;;0.69;65.65
28000;BME280;15328;50.860;10.562;2024-01-07T06:06:59;96437.22;;;0.60;66.00
28000;BME280;15328;50.860;10.562;2024-01-07T06:11:59;96453.09;;;0.59;65.27
28000;BME280;15328;50.860;10.562;2024-01-07T06:16:59;96454.88;;;0.58;65.36
28000;BME280;15328;50.860;10.562;2024-01-07T06:22:00;96462.97;;;0.47;65.35
28000;BME280;15328;50.860;10.562;2024-01-07T06:27:00;96474.22;;;0.40;65.33
28000;BME280;15328;50.860;10.562;2024-01-07T06:32:04;96483.81;;;0.31;64.64
28000;BME280;15328;50.860;10.562;2024-01-07T06:37:04;96495.53;;;0.27;64.77
28000;BME280;15328;50.860;10.562;2024-01-07T06:42:05;96503.41;;;0.27;65.63
28000;BME280;15328;50.860;10.562;2024-01-07T06:47:06;96514.47;;;0.39;65.66
28000;BME280;15328;50.860;10.562;2024-01-07T06:52:06;96519.66;;;0.30;64.80
28000;BME280;15328;50.860;10.562;2024-01-07T06:57:07;96529.28;;;0.30;64.60
28000;BME280;15328;50.860;10.562;2024-01-07T07:02:07;96529.56;;;0.27;64.35
28000;BME280;15328;50.860;10.562;2024-01-07T07:07:07;96541.72;;;0.28;64.90
28000;BME280;15328;50.860;10.562;2024-01-07T07:12:08;96549.31;;;0.21;63.77
28000;BME280;15328;50.860;10.562;2024-01-07T07:17:08;96554.63;;;0.12;63.81
28000;BME280;15328;50.860;10.562;2024-01-07T07:22:09;96569.59;;;0.02;63.85
28000;BME280;15328;50.860;10.562;2024-01-07T07:27:09;96575.50;;;0.04;64.39
28000;BME280;15328;50.860;10.562;2024-01-07T07:32:09;96570.25;;;0.04;64.00
28000;BME280;15328;50.860;10.562;2024-01-07T07:37:10;96576.63;;;0.01;63.74
28000;BME280;15328;50.860;10.562;2024-01-07T07:42:10;96587.44;;;-0.12;64.49
28000;BME280;15328;50.860;10.562;2024-01-07T07:47:11;96585.84;;;-0.22;64.21
28000;BME280;15328;50.860;10.562;2024-01-07T07:52:11;96595.19;;;-0.20;64.53
28000;BME280;15328;50.860;10.562;2024-01-07T07:57:14;96598.03;;;-0.13;64.15
28000;BME280;15328;50.860;10.562;2024-01-07T08:02:14;96614.31;;;-0.19;64.38
28000;BME280;15328;50.860;10.562;2024-01-07T08:07:15;96615.59;;;-0.23;64.39
28000;BME280;15328;50.860;10.562;2024-01-07T08:12:15;96621.63;;;-0.23;64.56
28000;BME280;15328;50.860;10.562;2024-01-07T08:17:16;96630.97;;;-0.20;64.28
28000;BME280;15328;50.860;10.562;2024-01-07T08:22:17;96637.84;;;-0.19;64.92
28000;BME280;15328;50.860;10.562;2024-01-07T08:27:17;96641.75;;;-0.23;64.18
28000;BME280;15328;50.860;10.562;2024-01-07T08:32:17;96640.78;;;-0.22;64.47
28000;BME280;15328;50.860;10.562;2024-01-07T08:37:19;96652.19;;;-0.23;64.28
28000;BME280;15328;50.860;10.562;2024-01-07T08:42:19;96660.22;;;-0.35;64.23
28000;BME280;15328;50.860;10.562;2024-01-07T08:47:20;96653.63;;;-0.39;64.38
28000;BME280;15328;50.860;10.562;2024-01-07T08:52:20;96662.28;;;-0.38;65.13
28000;BME280;15328;50.860;10.562;2024-01-07T08:57:21;96670.97;;;-0.38;64.27
28000;BME280;15328;50.860;10.562;2024-01-07T09:02:21;96679.91;;;-0.40;63.85
28000;BME280;15328;50.860;10.562;2024-01-07T09:07:21;96683.94;;;-0.55;63.66
28000;BME280;15328;50.860;10.562;2024-01-07T09:12:22;96688.34;;;-0.56;64.54
28000;BME280;15328;50.860;10.562;2024-01-07T09:17:23;96701.56;;;-0.57;64.17
28000;BME280;15328;50.860;10.562;2024-01-07T09:22:23;96704.47;;;-0.60;64.06
28000;BME280;15328;50.860;10.562;2024-01-07T09:27:23;96712.59;;;-0.64;64.24
28000;BME280;15328;50.860;10.562;2024-01-07T09:32:24;96718.25;;;-0.68;63.99
28000;BME280;15328;50.860;10.562;2024-01-07T09:37:24;96716.16;;;-0.65;63.67
28000;BME280;15328;50.860;10.562;2024-01-07T09:42:25;96717.94;;;-0.55;64.21
28000;BME280;15328;50.860;10.562;2024-01-07T09:47:26;96724.81;;;-0.54;64.40
28000;BME280;15328;50.860;10.562;2024-01-07T09:52:27;96732.63;;;-0.45;64.06
28000;BME280;15328;50.860;10.562;2024-01-07T09:57:27;96729.78;;;-0.51;63.68
28000;BME280;15328;50.860;10.562;2024-01-07T10:02:28;96732.25;;;-0.50;63.92
28000;BME280;15328;50.860;10.562;2024-01-07T10:07:28;96727.13;;;-0.42;64.09
28000;BME280;15328;50.860;10.562;2024-01-07T10:12:29;96734.91;;;-0.32;64.30
28000;BME280;15328;50.860;10.562;2024-01-07T10:17:29;96736.75;;;-0.42;63.19
28000;BME280;15328;50.860;10.562;2024-01-07T10:22:29;96733.56;;;-0.36;62.71
28000;BME280;15328;50.860;10.562;2024-01-07T10:27:33;96735.94;;;-0.43;63.16
28000;BME280;15328;50.860;10.562;2024-01-07T10:32:37;96734.13;;;-0.42;62.37
28000;BME280;15328;50.860;10.562;2024-01-07T10:37:38;96733.75;;;-0.47;63.02
28000;BME280;15328;50.860;10.562;2024-01-07T10:42:40;96732.91;;;-0.48;62.09
28000;BME280;15328;50.860;10.562;2024-01-07T10:47:48;96724.94;;;-0.56;61.25
28000;BME280;15328;50.860;10.562;2024-01-07T10:52:50;96741.75;;;-0.68;61.77
28000;BME280;15328;50.860;10.562;2024-01-07T10:57:56;96738.03;;;-0.66;62.00
28000;BME280;15328;50.860;10.562;2024-01-07T11:03:02;96746.31;;;-0.70;61.57
28000;BME280;15328;50.860;10.562;2024-01-07T11:08:15;96745.66;;;-0.82;61.45
28000;BME280;15328;50.860;10.562;2024-01-07T11:13:37;96738.34;;;-0.78;61.37
28000;BME280;15328;50.860;10.562;2024-01-07T11:18:50;96748.25;;;-0.82;61.28
28000;BME280;15328;50.860;10.562;2024-01-07T11:23:51;96753.34;;;-0.90;59.72
28000;BME280;15328;50.860;10.562;2024-01-07T11:28:54;96755.69;;;-0.97;59.06
28000;BME280;15328;50.860;10.562;2024-01-07T11:33:56;96756.66;;;-1.07;59.28
28000;BME280;15328;50.860;10.562;2024-01-07T11:38:56;96754.06;;;-1.07;60.57
28000;BME280;15328;50.860;10.562;2024-01-07T11:43:58;96755.00;;;-1.08;59.74
28000;BME280;15328;50.860;10.562;2024-01-07T11:49:01;96755.69;;;-1.06;60.07
28000;BME280;15328;50.860;10.562;2024-01-07T11:54:03;96756.66;;;-1.07;59.90
28000;BME280;15328;50.860;10.562;2024-01-07T11:59:03;96762.72;;;-1.07;59.70
28000;BME280;15328;50.860;10.562;2024-01-07T12:04:04;96764.34;;;-1.15;59.58
28000;BME280;15328;50.860;10.562;2024-01-07T12:09:05;96761.47;;;-1.22;59.24
28000;BME280;15328;50.860;10.562;2024-01-07T12:14:06;96762.69;;;-1.36;58.56
28000;BME280;15328;50.860;10.562;2024-01-07T12:19:08;96777.91;;;-1.41;59.11
28000;BME280;15328;50.860;10.562;2024-01-07T12:24:09;96773.25;;;-1.47;58.33
28000;BME280;15328;50.860;10.562;2024-01-07T12:29:12;96775.03;;;-1.57;59.10
28000;BME280;15328;50.860;10.562;2024-01-07T12:34:12;96784.34;;;-1.64;58.74
28000;BME280;15328;50.860;10.562;2024-01-07T12:39:12;96781.84;;;-1.75;58.13
28000;BME280;15328;50.860;10.562;2024-01-07T12:44:13;96785.13;;;-1.73;58.94
28000;BME280;15328;50.860;10.562;2024-01-07T12:49:13;96779.34;;;-1.77;58.75
28000;BME280;15328;50.860;10.562;2024-01-07T12:54:14;96791.03;;;-1.71;59.24
28000;BME280;15328;50.860;10.562;2024-01-07T12:59:14;96800.69;;;-1.62;59.29
28000;BME280;15328;50.860;10.562;2024-01-07T13:04:14;96799.03;;;-1.63;59.11
28000;BME280;15328;50.860;10.562;2024-01-07T13:09:15;96802.22;;;-1.60;59.72
28000;BME280;15328;50.860;10.562;2024-01-07T13:14:15;96810.72;;;-1.58;58.50
28000;BME280;15328;50.860;10.562;2024-01-07T13:19:15;96813.19;;;-1.56;57.87
28000;BME280;15328;50.860;10.562;2024-01-07T13:24:16;96819.19;;;-1.65;58.08
28000;BME280;15328;50.860;10.562;2024-01-07T13:29:16;96818.00;;;-1.61;58.69
28000;BME280;15328;50.860;10.562;2024-01-07T13:34:17;96824.31;;;-1.54;59.36
28000;BME280;15328;50.860;10.562;2024-01-07T13:39:18;96825.41;;;-1.57;58.24
28000;BME280;15328;50.860;10.562;2024-01-07T13:44:19;96828.03;;;-1.57;58.52
28000;BME280;15328;50.860;10.562;2024-01-07T13:49:19;96823.22;;;-1.51;58.88
28000;BME280;15328;50.860;10.562;2024-01-07T13:54:19;96839.47;;;-1.38;58.96
28000;BME280;15328;50.860;10.562;2024-01-07T13:59:20;96838.25;;;-1.34;58.85
28000;BME280;15328;50.860;10.562;2024-01-07T14:04:23;96833.72;;;-1.32;57.94
28000;BME280;15328;50.860;10.562;2024-01-07T14:09:24;96836.47;;;-1.34;57.92
28000;BME280;15328;50.860;10.562;2024-01-07T14:14:25;96853.22;;;-1.36;58.98
28000;BME280;15328;50.860;10.562;2024-01-07T14:19:25;96851.94;;;-1.42;57.66
28000;BME280;15328;50.860;10.562;2024-01-07T14:24:26;96863.50;;;-1.44;57.69
28000;BME280;15328;50.860;10.562;2024-01-07T14:29:26;96868.16;;;-1.48;57.12
28000;BME280;15328;50.860;10.562;2024-01-07T14:34:26;96885.69;;;-1.60;58.65
28000;BME280;15328;50.860;10.562;2024-01-07T14:39:27;96879.47;;;-1.68;57.04
28000;BME280;15328;50.860;10.562;2024-01-07T14:44:27;96880.28;;;-1.68;57.78
28000;BME280;15328;50.860;10.562;2024-01-07T14:49:27;96883.13;;;-1.80;57.74
28000;BME280;15328;50.860;10.562;2024-01-07T14:54:28;96883.81;;;-1.78;58.49
28000;BME280;15328;50.860;10.562;2024-01-07T14:59:31;96887.56;;;-1.71;58.46
28000;BME280;15328;50.860;10.562;2024-01-07T15:04:31;96896.91;;;-1.69;58.24
28000;BME280;15328;50.860;10.562;2024-01-07T15:09:32;96905.19;;;-1.64;59.64
28000;BME280;15328;50.860;10.562;2024-01-07T15:14:32;96907.91;;;-1.65;58.47
28000;BME280;15328;50.860;10.562;2024-01-07T15:19:33;96912.28;;;-1.66;59.48
28000;BME280;15328;50.860;10.562;2024-01-07T15:24:34;96910.97;;;-1.60;58.45
28000;BME280;15328;50.860;10.562;2024-01-07T15:29:34;96916.22;;;-1.50;59.64
28000;BME280;15328;50.860;10.562;2024-01-07T15:34:35;96928.03;;;-1.46;58.25
28000;BME280;15328;50.860;10.562;2024-01-07T15:39:35;96927.34;;;-1.48;58.11
28000;BME280;15328;50.860;10.562;2024-01-07T15:44:37;96936.81;;;-1.47;59.19
28000;BME280;15328;50.860;10.562;2024-01-07T15:49:38;96931.06;;;-1.41;59.46
28000;BME280;15328;50.860;10.562;2024-01-07T15:54:38;96940.75;;;-1.32;58.18
28000;BME280;15328;50.860;10.562;2024-01-07T15:59:42;96934.72;;;-1.23;58.20
28000;BME280;15328;50.860;10.562;2024-01-07T16:04:43;96946.41;;;-1.17;57.90
28000;BME280;15328;50.860;10.562;2024-01-07T16:09:43;96944.38;;;-1.14;57.28
28000;BME280;15328;50.860;10.562;2024-01-07T16:14:43;96948.34;;;-1.10;58.30
28000;BME280;15328;50.860;10.562;2024-01-07T16:19:44;96955.69;;;-1.04;57.61
28000;BME280;15328;50.860;10.562;2024-01-07T16:24:44;96956.25;;;-1.00;57.99
28000;BME280;15328;50.860;10.562;2024-01-07T16:29:44;96965.47;;;-0.96;57.90
28000;BME280;15328;50.860;10.562;2024-01-07T16:34:45;96967.25;;;-0.87;58.29
28000;BME280;15328;50.860;10.562;2024-01-07T16:39:45;96977.84;;;-0.88;58.92
28000;BME280;15328;50.860;10.562;2024-01-07T16:44:46;96977.97;;;-0.90;59.36
28000;BME280;15328;50.860;10.562;2024-01-07T16:49:47;96968.34;;;-0.89;58.30
28000;BME280;15328;50.860;10.562;2024-01-07T16:54:47;96976.31;;;-0.91;58.71
28000;BME280;15328;50.860;10.562;2024-01-07T16:59:48;96987.75;;;-0.82;58.65
28000;BME280;15328;50.860;10.562;2024-01-07T17:04:49;96986.25;;;-0.85;59.31
28000;BME280;15328;50.860;10.562;2024-01-07T17:09:50;96986.69;;;-0.80;58.80
28000;BME280;15328;50.860;10.562;2024-01-07T17:14:50;96988.75;;;-0.74;58.96
28000;BME280;15328;50.860;10.562;2024-01-07T17:19:52;96998.38;;;-0.74;59.34
28000;BME280;15328;50.860;10.562;2024-01-07T17:24:52;97003.88;;;-0.68;59.06
28000;BME280;15328;50.860;10.562;2024-01-07T17:29:54;97007.19;;;-0.66;58.95
28000;BME280;15328;50.860;10.562;2024-01-07T17:34:54;97006.91;;;-0.72;59.01
28000;BME280;15328;50.860;10.562;2024-01-07T17:39:54;97014.91;;;-0.64;59.67
28000;BME280;15328;50.860;10.562;2024-01-07T17:44:55;97010.38;;;-0.62;58.77
28000;BME280;15328;50.860;10.562;2024-01-07T17:49:55;97016.00;;;-0.57;59.31
28000;BME280;15328;50.860;10.562;2024-01-07T17:54:56;97014.53;;;-0.50;59.57
28000;BME280;15328;50.860;10.562;2024-01-07T18:00:00;97014.41;;;-0.48;59.32
28000;BME280;15328;50.860;10.562;2024-01-07T18:05:02;97018.78;;;-0.49;58.76
28000;BME280;15328;50.860;10.562;2024-01-07T18:10:03;97023.88;;;-0.47;59.75
28000;BME280;15328;50.860;10.562;2024-01-07T18:15:04;97022.66;;;-0.43;59.55
28000;BME280;15328;50.860;10.562;2024-01-07T18:20:05;97010.53;;;-0.35;59.03
28000;BME280;15328;50.860;10.562;2024-01-07T18:25:06;97024.63;;;-0.26;58.87
28000;BME280;15328;50.860;10.562;2024-01-07T18:30:07;97021.59;;;-0.21;58.86
28000;BME280;15328;50.860;10.562;2024-01-07T18:35:08;97027.78;;;-0.22;59.72
28000;BME280;15328;50.860;10.562;2024-01-07T18:40:11;97034.25;;;-0.17;59.74
28000;BME280;15328;50.860;10.562;2024-01-07T18:45:12;97035.75;;;-0.14;59.04
28000;BME280;15328;50.860;10.562;2024-01-07T18:50:13;97040.84;;;-0.13;59.31
28000;BME280;15328;50.860;10.562;2024-01-07T18:55:15;97040.84;;;-0.13;59.52
28000;BME280;15328;50.860;10.562;2024-01-07T19:00:16;97045.53;;;-0.07;59.50
28000;BME280;15328;50.860;10.562;2024-01-07T19:05:16;97055.84;;;-0.05;58.95
28000;BME280;15328;50.860;10.562;2024-01-07T19:10:18;97054.88;;;-0.04;59.37
28000;BME280;15328;50.860;10.562;2024-01-07T19:15:18;97047.72;;;-0.02;59.29
28000;BME280;15328;50.860;10.562;2024-01-07T19:20:22;97044.03;;;0.01;59.40
28000;BME280;15328;50.860;10.562;2024-01-07T19:25:30;97055.19;;;0.12;59.46
28000;BME280;15328;50.860;10.562;2024-01-07T19:30:30;97051.31;;;0.16;59.41
28000;BME280;15328;50.860;10.562;2024-01-07T19:35:32;97065.78;;;0.11;58.78
28000;BME280;15328;50.860;10.562;2024-01-07T19:40:35;97067.16;;;0.05;59.44
28000;BME280;15328;50.860;10.562;2024-01-07T19:45:36;97070.88;;;0.03;58.61
28000;BME280;15328;50.860;10.562;2024-01-07T19:50:42;97078.59;;;0.04;58.53
28000;BME280;15328;50.860;10.562;2024-01-07T19:55:43;97084.06;;;-0.09;59.51
28000;BME280;15328;50.860;10.562;2024-01-07T20:00:51;97081.88;;;-0.13;59.54
28000;BME280;15328;50.860;10.562;2024-01-07T20:05:52;97079.94;;;-0.11;59.40
28000;BME280;15328;50.860;10.562;2024-01-07T20:10:52;97083.38;;;-0.11;59.11
28000;BME280;15328;50.860;10.562;2024-01-07T20:15:52;97085.72;;;-0.08;58.81
28000;BME280;15328;50.860;10.562;2024-01-07T20:20:53;97088.91;;;-0.04;59.68
28000;BME280;15328;50.860;10.562;2024-01-07T20:25:54;97091.50;;;-0.04;59.28
28000;BME280;15328;50.860;10.562;2024-01-07T20:30:55;97089.03;;;-0.06;58.67
28000;BME280;15328;50.860;10.562;2024-01-07T20:35:55;97095.38;;;-0.08;59.09
28000;BME280;15328;50.860;10.562;2024-01-07T20:40:56;97090.97;;;-0.08;59.44
28000;BME280;15328;50.860;10.562;2024-01-07T20:45:57;97089.84;;;-0.05;59.48
28000;BME280;15328;50.860;10.562;2024-01-07T20:50:57;97096.06;;;-0.06;58.76
28000;BME280;15328;50.860;10.562;2024-01-07T20:55:59;97094.94;;;-0.04;59.18
28000;BME280;15328;50.860;10.562;2024-01-07T21:01:00;97106.81;;;0.01;58.94
28000;BME280;15328;50.860;10.562;2024-01-07T21:06:00;97106.69;;;0.02;58.95
28000;BME280;15328;50.860;10.562;2024-01-07T21:11:01;97112.88;;;0.01;58.85
28000;BME280;15328;50.860;10.562;2024-01-07T21:16:04;97111.34;;;-0.02;58.42
28000;BME280;15328;50.860;10.562;2024-01-07T21:21:05;97104.19;;;-0.09;58.64
28000;BME280;15328;50.860;10.562;2024-01-07T21:26:05;97109.00;;;-0.05;58.99
28000;BME280;15328;50.860;10.562;2024-01-07T21:31:06;97110.50;;;-0.02;58.88
28000;BME280;15328;50.860;10.562;2024-01-07T21:36:09;97109.31;;;0.02;58.29
28000;BME280;15328;50.860;10.562;2024-01-07T21:41:10;97106.69;;;0.02;58.75
28000;BME280;15328;50.860;10.562;2024-01-07T21:46:11;97102.53;;;-0.01;59.13
28000;BME280;15328;50.860;10.562;2024-01-07T21:51:12;97110.50;;;-0.02;59.11
28000;BME280;15328;50.860;10.562;2024-01-07T21:56:12;97113.25;;;-0.04;58.35
28000;BME280;15328;50.860;10.562;2024-01-07T22:01:12;97123.16;;;-0.07;59.01
28000;BME280;15328;50.860;10.562;2024-01-07T22:06:13;97118.06;;;-0.09;59.19
28000;BME280;15328;50.860;10.562;2024-01-07T22:11:14;97122.22;;;-0.06;59.27
28000;BME280;15328;50.860;10.562;2024-01-07T22:16:15;97123.16;;;-0.07;58.97
28000;BME280;15328;50.860;10.562;2024-01-07T22:21:19;97126.34;;;-0.04;59.36
28000;BME280;15328;50.860;10.562;2024-01-07T22:26:20;97128.97;;;-0.04;58.68
28000;BME280;15328;50.860;10.562;2024-01-07T22:31:20;97124.13;;;-0.08;59.10
28000;BME280;15328;50.860;10.562;2024-01-07T22:36:21;97126.34;;;-0.04;59.21
28000;BME280;15328;50.860;10.562;2024-01-07T22:41:21;97133.69;;;0.03;58.96
28000;BME280;15328;50.860;10.562;2024-01-07T22:46:21;97141.53;;;0.03;58.99
28000;BME280;15328;50.860;10.562;2024-01-07T22:51:22;97132.72;;;0.04;58.57
28000;BME280;15328;50.860;10.562;2024-01-07T22:56:22;97137.25;;;0.02;59.00
28000;BME280;15328;50.860;10.562;2024-01-07T23:01:26;97139.28;;;-0.02;59.16
28000;BME280;15328;50.860;10.562;2024-01-07T23:06:28;97131.31;;;-0.01;59.06
28000;BME280;15328;50.860;10.562;2024-01-07T23:11:28;97135.16;;;-0.05;58.65
28000;BME280;15328;50.860;10.562;2024-01-07T23:16:29;97136.94;;;-0.05;58.40
28000;BME280;15328;50.860;10.562;2024-01-07T23:21:29;97129.91;;;-0.14;58.49
28000;BME280;15328;50.860;10.562;2024-01-07T23:26:29;97125.91;;;-0.18;58.63
28000;BME280;15328;50.860;10.562;2024-01-07T23:31:30;97128.25;;;-0.25;58.62
28000;BME280;15328;50.860;10.562;2024-01-07T23:36:30;97135.63;;;-0.30;59.01
28000;BME280;15328;50.860;10.562;2024-01-07T23:41:31;97146.22;;;-0.32;59.65
28000;BME280;15328;50.860;10.562;2024-01-07T23:46:31;97147.50;;;-0.26;59.59
28000;BME280;15328;50.860;10.562;2024-01-07T23:51:33;97143.25;;;-0.27;59.31
28000;BME280;15328;50.860;10.562;2024-01-07T23:56:37;97150.63;;;-0.32;59.84
